createdAt,value
2023-02-12T00:01:12.854Z,19.30
2023-02-12T00:02:45.658Z,19.67
2023-02-12T00:04:19.789Z,17.95
2023-02-12T00:05:51.541Z,20.00
2023-02-12T00:07:24.273Z,19.63
2023-02-12T00:08:58.217Z,17.83
2023-02-12T00:10:29.964Z,19.65
2023-02-12T00:12:02.727Z,19.60
2023-02-12T00:13:35.503Z,19.20
2023-02-12T00:15:09.329Z,18.38
2023-02-12T00:16:42.029Z,19.30
2023-02-12T00:18:14.754Z,20.38
2023-02-12T00:19:49.555Z,20.38
2023-02-12T00:21:23.275Z,19.38
2023-02-12T00:22:56.033Z,20.52
2023-02-12T00:24:28.817Z,20.70
2023-02-12T00:26:00.653Z,20.52
2023-02-12T00:27:34.655Z,19.38
2023-02-12T00:29:07.515Z,19.60
2023-02-12T00:30:40.297Z,19.40
2023-02-12T00:32:14.242Z,19.65
2023-02-12T00:33:46.971Z,20.02
2023-02-12T00:35:21.031Z,19.60
2023-02-12T00:36:53.758Z,18.13
2023-02-12T00:38:25.554Z,18.58
2023-02-12T00:39:58.280Z,19.13
2023-02-12T00:41:31.035Z,18.80
2023-02-12T00:43:02.783Z,18.55
2023-02-12T00:44:35.666Z,18.65
2023-02-12T00:46:08.948Z,18.92
2023-02-12T00:47:41.976Z,18.45
2023-02-12T00:49:14.942Z,18.50
2023-02-12T00:50:50.674Z,18.70
2023-02-12T00:52:23.376Z,20.63
2023-02-12T00:53:56.131Z,19.25
2023-02-12T00:55:28.847Z,19.27
2023-02-12T00:57:01.570Z,20.30
2023-02-12T00:58:33.367Z,20.02
2023-02-12T01:00:07.316Z,19.98
2023-02-12T01:01:40.079Z,20.45
2023-02-12T01:03:11.834Z,20.25
2023-02-12T01:04:44.655Z,20.27
2023-02-12T01:06:18.948Z,20.15
2023-02-12T01:07:52.297Z,19.58
2023-02-12T01:09:25.016Z,19.20
2023-02-12T01:10:58.162Z,19.92
2023-02-12T01:12:30.894Z,19.67
2023-02-12T01:14:03.934Z,19.08
2023-02-12T01:15:36.666Z,20.98
2023-02-12T01:17:10.008Z,19.75
2023-02-12T01:18:42.757Z,19.60
2023-02-12T01:20:19.073Z,20.58
2023-02-12T01:21:53.093Z,19.55
2023-02-12T01:23:26.256Z,18.70
2023-02-12T01:24:59.134Z,19.23
2023-02-12T01:26:32.624Z,19.23
2023-02-12T01:28:05.793Z,20.83
2023-02-12T01:29:39.722Z,20.35
2023-02-12T01:31:15.227Z,20.00
2023-02-12T01:32:48.014Z,20.80
2023-02-12T01:34:20.764Z,20.08
2023-02-12T01:35:52.678Z,20.55
2023-02-12T01:37:26.992Z,21.02
2023-02-12T01:38:59.489Z,21.38
2023-02-12T01:40:32.274Z,21.70
2023-02-12T01:42:06.007Z,21.63
2023-02-12T01:43:38.409Z,21.45
2023-02-12T01:45:54.476Z,20.42
2023-02-12T01:47:27.427Z,20.70
2023-02-12T01:49:00.428Z,21.00
2023-02-12T01:50:32.195Z,21.05
2023-02-12T01:52:11.453Z,20.48
2023-02-12T01:53:49.317Z,20.58
2023-02-12T01:55:21.714Z,21.70
2023-02-12T01:56:54.758Z,20.75
2023-02-12T01:58:30.161Z,21.83
2023-02-12T02:00:06.672Z,21.75
2023-02-12T02:01:39.795Z,20.77
2023-02-12T02:03:11.912Z,22.38
2023-02-12T02:04:47.719Z,21.05
2023-02-12T02:06:22.551Z,21.88
2023-02-12T02:07:55.514Z,21.23
2023-02-12T02:09:31.385Z,21.88
2023-02-12T02:11:24.684Z,20.98
2023-02-12T02:13:15.177Z,21.73
2023-02-12T02:14:47.889Z,21.73
2023-02-12T02:16:27.046Z,21.45
2023-02-12T02:18:03.413Z,22.13
2023-02-12T02:19:53.506Z,21.08
2023-02-12T02:21:47.949Z,21.52
2023-02-12T02:23:59.753Z,22.13
2023-02-12T02:25:50.789Z,21.08
2023-02-12T02:27:31.220Z,21.48
2023-02-12T02:29:20.997Z,22.25
2023-02-12T02:30:59.162Z,22.35
2023-02-12T02:32:35.510Z,21.63
2023-02-12T02:34:13.241Z,21.55
2023-02-12T02:35:54.583Z,22.88
2023-02-12T02:37:32.664Z,22.40
2023-02-12T02:39:10.541Z,21.83
2023-02-12T02:40:50.357Z,21.73
2023-02-12T02:42:28.491Z,22.00
2023-02-12T02:44:08.963Z,21.27
2023-02-12T02:45:43.745Z,22.17
2023-02-12T02:47:20.112Z,22.25
2023-02-12T02:48:54.915Z,22.13
2023-02-12T02:50:29.165Z,22.45
2023-02-12T02:52:06.353Z,22.70
2023-02-12T02:53:43.872Z,22.55
2023-02-12T02:55:19.038Z,21.15
2023-02-12T02:56:56.217Z,22.48
2023-02-12T02:58:35.202Z,22.38
2023-02-12T03:00:15.104Z,21.85
2023-02-12T03:01:52.480Z,23.20
2023-02-12T03:03:30.532Z,22.17
2023-02-12T03:05:06.914Z,22.02
2023-02-12T03:06:47.077Z,22.42
2023-02-12T03:08:25.138Z,23.27
2023-02-12T03:10:02.909Z,22.00
2023-02-12T03:11:35.946Z,22.98
2023-02-12T03:13:13.140Z,21.58
2023-02-12T03:14:49.164Z,22.77
2023-02-12T03:16:26.079Z,22.27
2023-02-12T03:17:59.410Z,23.20
2023-02-12T03:19:36.262Z,22.48
2023-02-12T03:21:12.716Z,22.33
2023-02-12T03:22:51.288Z,23.02
2023-02-12T03:24:29.614Z,21.90
2023-02-12T03:26:06.897Z,21.95
2023-02-12T03:27:42.826Z,24.10
2023-02-12T03:29:15.876Z,22.20
2023-02-12T03:30:53.305Z,22.80
2023-02-12T03:32:32.296Z,22.77
2023-02-12T03:34:13.910Z,22.98
2023-02-12T03:35:57.507Z,23.35
2023-02-12T03:37:34.138Z,22.92
2023-02-12T03:39:12.952Z,22.92
2023-02-12T03:40:51.947Z,22.83
2023-02-12T03:42:33.863Z,23.73
2023-02-12T03:44:13.816Z,23.40
2023-02-12T03:45:51.347Z,23.55
2023-02-12T03:47:30.321Z,23.45
2023-02-12T03:49:08.075Z,22.48
2023-02-12T03:50:46.752Z,24.02
2023-02-12T03:52:20.035Z,24.23
2023-02-12T03:53:53.519Z,23.88
2023-02-12T03:55:26.789Z,22.92
2023-02-12T03:57:05.548Z,22.27
2023-02-12T03:58:40.705Z,21.75
2023-02-12T04:00:16.407Z,23.35
2023-02-12T04:01:49.984Z,22.95
2023-02-12T04:03:23.058Z,23.02
2023-02-12T04:04:55.826Z,24.60
2023-02-12T04:06:29.010Z,23.20
2023-02-12T04:08:05.217Z,23.73
2023-02-12T04:09:38.014Z,24.17
2023-02-12T04:11:21.541Z,23.98
2023-02-12T04:13:01.296Z,22.80
2023-02-12T04:14:43.104Z,23.50
2023-02-12T04:16:26.365Z,23.27
2023-02-12T04:18:04.885Z,23.25
2023-02-12T04:19:46.948Z,21.67
2023-02-12T04:21:39.158Z,24.20
2023-02-12T04:23:23.301Z,23.77
2023-02-12T04:25:10.155Z,24.77
2023-02-12T04:26:50.215Z,23.83
2023-02-12T04:28:33.784Z,22.83
2023-02-12T04:30:15.058Z,23.17
2023-02-12T04:31:51.120Z,22.52
2023-02-12T04:33:27.090Z,23.30
2023-02-12T04:35:06.304Z,22.67
2023-02-12T04:36:46.191Z,23.58
2023-02-12T04:38:22.583Z,22.95
2023-02-12T04:39:55.750Z,23.63
2023-02-12T04:41:27.802Z,24.08
2023-02-12T04:43:00.756Z,24.13
2023-02-12T04:44:39.075Z,23.23
2023-02-12T04:46:11.832Z,22.60
2023-02-12T04:47:44.543Z,23.33
2023-02-12T04:49:18.918Z,23.27
2023-02-12T04:50:51.668Z,23.25
2023-02-12T04:52:24.366Z,22.52
2023-02-12T04:53:58.403Z,23.63
2023-02-12T04:55:31.110Z,23.30
2023-02-12T04:57:03.934Z,22.83
2023-02-12T04:58:37.682Z,24.08
2023-02-12T05:00:13.641Z,23.63
2023-02-12T05:01:46.950Z,23.83
2023-02-12T05:03:19.697Z,24.38
2023-02-12T05:04:52.515Z,23.92
2023-02-12T05:06:24.302Z,23.50
2023-02-12T05:07:57.008Z,24.45
2023-02-12T05:09:31.125Z,23.98
2023-02-12T05:11:08.032Z,24.20
2023-02-12T05:12:40.815Z,24.77
2023-02-12T05:14:13.677Z,23.98
2023-02-12T05:15:46.424Z,23.77
2023-02-12T05:17:19.151Z,23.52
2023-02-12T05:18:51.860Z,25.50
2023-02-12T05:20:24.561Z,26.15
2023-02-12T05:21:57.310Z,27.35
2023-02-12T05:23:31.095Z,28.70
2023-02-12T05:25:06.032Z,27.17
2023-02-12T05:26:38.734Z,28.52
2023-02-12T05:28:11.470Z,28.88
2023-02-12T05:29:44.215Z,29.42
2023-02-12T05:31:20.980Z,28.60
2023-02-12T05:32:54.067Z,29.70
2023-02-12T05:34:26.759Z,29.58
2023-02-12T05:36:04.638Z,30.30
2023-02-12T05:37:37.545Z,30.42
2023-02-12T05:39:10.414Z,30.15
2023-02-12T05:40:44.559Z,27.73
2023-02-12T05:42:17.311Z,29.58
2023-02-12T05:43:50.671Z,30.80
2023-02-12T05:45:27.710Z,29.92
2023-02-12T05:47:00.449Z,31.77
2023-02-12T05:48:34.240Z,31.95
2023-02-12T05:50:08.395Z,31.35
2023-02-12T05:51:41.430Z,31.52
2023-02-12T05:53:13.143Z,32.65
2023-02-12T05:54:45.850Z,34.38
2023-02-12T05:56:21.748Z,32.58
2023-02-12T05:57:54.447Z,31.75
2023-02-12T05:59:27.174Z,29.58
2023-02-12T06:00:59.883Z,32.28
2023-02-12T06:02:33.984Z,33.40
2023-02-12T06:04:09.624Z,35.30
2023-02-12T06:05:42.364Z,32.53
2023-02-12T06:07:15.078Z,32.97
2023-02-12T06:08:49.675Z,31.13
2023-02-12T06:10:22.460Z,33.88
2023-02-12T06:11:56.511Z,29.50
2023-02-12T06:13:28.416Z,29.67
2023-02-12T06:15:01.244Z,30.48
2023-02-12T06:16:34.921Z,28.75
2023-02-12T06:18:10.061Z,29.30
2023-02-12T06:19:42.777Z,28.92
2023-02-12T06:21:15.911Z,28.70
2023-02-12T06:22:48.607Z,27.45
2023-02-12T06:24:21.307Z,28.90
2023-02-12T06:25:58.006Z,28.20
2023-02-12T06:27:32.213Z,31.20
2023-02-12T06:29:04.941Z,31.88
2023-02-12T06:30:36.853Z,31.13
2023-02-12T06:32:09.714Z,31.08
2023-02-12T06:33:42.423Z,32.38
2023-02-12T06:35:15.303Z,32.85
2023-02-12T06:36:48.929Z,31.60
2023-02-12T06:38:21.681Z,32.25
2023-02-12T06:39:54.389Z,31.52
2023-02-12T06:41:27.090Z,34.38
2023-02-12T06:43:01.116Z,32.55
2023-02-12T06:44:33.910Z,33.90
2023-02-12T06:46:06.530Z,33.95
2023-02-12T06:47:39.236Z,34.67
2023-02-12T06:49:14.132Z,34.03
2023-02-12T06:50:46.857Z,32.63
2023-02-12T06:52:21.090Z,34.53
2023-02-12T06:53:55.597Z,33.83
2023-02-12T06:55:27.407Z,34.58
2023-02-12T06:57:00.114Z,32.75
2023-02-12T06:58:33.221Z,33.60
2023-02-12T07:00:07.331Z,34.67
2023-02-12T07:01:40.091Z,34.13
2023-02-12T07:03:12.828Z,33.42
2023-02-12T07:04:45.513Z,33.95
2023-02-12T07:06:18.508Z,33.05
2023-02-12T07:07:51.255Z,33.40
2023-02-12T07:09:23.950Z,34.30
2023-02-12T07:10:56.670Z,33.33
2023-02-12T07:12:29.395Z,33.88
2023-02-12T07:14:03.455Z,35.42
2023-02-12T07:15:39.983Z,32.35
2023-02-12T07:17:12.756Z,36.42
2023-02-12T07:18:46.529Z,35.42
2023-02-12T07:20:19.698Z,36.22
2023-02-12T07:21:52.740Z,36.70
2023-02-12T07:23:25.453Z,38.08
2023-02-12T07:24:58.248Z,37.88
2023-02-12T07:26:30.964Z,37.63
2023-02-12T07:28:03.682Z,38.63
2023-02-12T07:29:37.724Z,36.38
2023-02-12T07:31:12.941Z,36.35
2023-02-12T07:32:45.662Z,35.70
2023-02-12T07:34:18.370Z,36.22
2023-02-12T07:35:51.063Z,34.95
2023-02-12T07:37:23.761Z,34.45
2023-02-12T07:38:57.273Z,36.35
2023-02-12T07:40:30.012Z,34.70
2023-02-12T07:42:02.707Z,35.45
2023-02-12T07:43:35.422Z,33.88
2023-02-12T07:45:10.653Z,35.15
2023-02-12T07:46:48.133Z,33.53
2023-02-12T07:48:21.259Z,35.03
2023-02-12T07:49:53.973Z,34.13
2023-02-12T07:51:27.722Z,31.10
2023-02-12T07:53:00.425Z,28.27
2023-02-12T07:54:33.298Z,29.02
2023-02-12T07:56:06.787Z,29.08
2023-02-12T07:57:39.473Z,30.30
2023-02-12T07:59:14.498Z,30.10
2023-02-12T08:00:48.516Z,30.80
2023-02-12T08:02:21.288Z,31.75
2023-02-12T08:03:54.553Z,30.75
2023-02-12T08:05:28.846Z,31.77
2023-02-12T08:07:02.791Z,31.70
2023-02-12T08:08:35.590Z,32.15
2023-02-12T08:10:09.185Z,32.25
2023-02-12T08:11:43.271Z,32.47
2023-02-12T08:13:15.950Z,32.95
2023-02-12T08:14:48.895Z,32.42
2023-02-12T08:16:24.543Z,34.38
2023-02-12T08:17:57.296Z,36.90
2023-02-12T08:19:30.044Z,36.70
2023-02-12T08:21:03.774Z,37.40
2023-02-12T08:22:36.504Z,37.83
2023-02-12T08:24:10.842Z,38.15
2023-02-12T08:25:43.552Z,38.83
2023-02-12T08:27:16.291Z,38.60
2023-02-12T08:28:51.253Z,36.85
2023-02-12T08:30:23.956Z,35.97
2023-02-12T08:31:59.677Z,36.50
2023-02-12T08:33:31.590Z,33.70
2023-02-12T08:35:04.288Z,32.22
2023-02-12T08:36:38.679Z,31.67
2023-02-12T08:38:11.355Z,35.22
2023-02-12T08:39:44.270Z,36.40
2023-02-12T08:41:20.552Z,38.03
2023-02-12T08:42:54.114Z,38.40
2023-02-12T08:44:27.107Z,38.15
2023-02-12T08:46:04.243Z,34.53
2023-02-12T08:47:38.316Z,32.97
2023-02-12T08:49:14.699Z,32.22
2023-02-12T08:50:47.658Z,33.60
2023-02-12T08:52:20.371Z,31.48
2023-02-12T08:53:54.606Z,31.38
2023-02-12T08:55:28.091Z,32.00
2023-02-12T08:57:02.784Z,32.55
2023-02-12T08:58:36.247Z,34.60
2023-02-12T09:00:11.139Z,35.53
2023-02-12T09:01:44.298Z,36.58
2023-02-12T09:03:18.387Z,39.72
2023-02-12T09:04:51.182Z,32.60
2023-02-12T09:06:25.369Z,30.17
2023-02-12T09:07:58.062Z,30.50
2023-02-12T09:09:30.746Z,29.75
2023-02-12T09:11:06.893Z,29.85
2023-02-12T09:12:39.581Z,29.50
2023-02-12T09:14:16.324Z,29.63
2023-02-12T09:15:49.172Z,29.33
2023-02-12T09:17:27.232Z,28.40
2023-02-12T09:19:01.691Z,26.52
2023-02-12T09:20:34.814Z,28.65
2023-02-12T09:22:07.495Z,28.75
2023-02-12T09:23:40.859Z,29.65
2023-02-12T09:25:13.558Z,32.20
2023-02-12T09:26:46.231Z,31.58
2023-02-12T09:28:18.967Z,32.67
2023-02-12T09:29:51.701Z,29.45
2023-02-12T09:31:27.172Z,30.83
2023-02-12T09:32:59.959Z,31.10
2023-02-12T09:34:36.333Z,32.90
2023-02-12T09:36:11.658Z,30.90
2023-02-12T09:37:44.819Z,31.38
2023-02-12T09:39:17.586Z,31.25
2023-02-12T09:41:13.916Z,31.25
2023-02-12T09:43:03.779Z,33.03
2023-02-12T09:44:46.485Z,32.50
2023-02-12T09:46:28.795Z,32.80
2023-02-12T09:48:13.384Z,34.53
2023-02-12T09:50:02.411Z,35.70
2023-02-12T09:51:35.395Z,33.90
2023-02-12T09:53:13.631Z,36.50
2023-02-12T09:54:46.512Z,34.58
2023-02-12T09:56:23.691Z,34.05
2023-02-12T09:57:56.488Z,37.35
2023-02-12T09:59:33.237Z,35.05
2023-02-12T10:01:13.436Z,34.90
2023-02-12T10:02:54.343Z,35.55
2023-02-12T10:04:28.291Z,35.38
2023-02-12T10:06:05.811Z,35.13
2023-02-12T10:08:01.179Z,34.30
2023-02-12T10:09:48.181Z,33.92
2023-02-12T10:11:30.831Z,34.70
2023-02-12T10:13:07.116Z,33.47
2023-02-12T10:15:00.611Z,35.60
2023-02-12T10:16:48.424Z,35.30
2023-02-12T10:18:50.351Z,34.20
2023-02-12T10:20:40.297Z,35.00
2023-02-12T10:22:23.302Z,32.85
2023-02-12T10:24:15.097Z,32.97
2023-02-12T10:25:53.078Z,34.88
2023-02-12T10:27:39.303Z,34.97
2023-02-12T10:29:15.836Z,33.00
2023-02-12T10:30:54.388Z,33.17
2023-02-12T10:32:30.774Z,32.83
2023-02-12T10:34:14.982Z,34.10
2023-02-12T10:35:52.377Z,34.72
2023-02-12T10:37:36.833Z,31.92
2023-02-12T10:39:17.038Z,33.35
2023-02-12T10:40:51.158Z,33.50
2023-02-12T10:42:33.211Z,33.90
2023-02-12T10:44:06.044Z,30.45
2023-02-12T10:45:40.879Z,31.67
2023-02-12T10:47:19.528Z,30.85
2023-02-12T10:48:54.883Z,31.80
2023-02-12T10:50:38.781Z,29.92
2023-02-12T10:52:18.911Z,30.73
2023-02-12T10:53:52.957Z,31.02
2023-02-12T10:55:27.900Z,31.95
2023-02-12T10:57:06.941Z,31.70
2023-02-12T10:58:41.352Z,30.77
2023-02-12T11:00:26.069Z,31.35
2023-02-12T11:01:58.957Z,33.28
2023-02-12T11:03:34.199Z,35.42
2023-02-12T11:05:24.796Z,31.80
2023-02-12T11:06:59.429Z,33.65
2023-02-12T11:08:35.655Z,32.58
2023-02-12T11:10:21.781Z,32.58
2023-02-12T11:11:54.684Z,30.73
2023-02-12T11:13:29.322Z,31.23
2023-02-12T11:15:05.102Z,29.25
2023-02-12T11:16:46.344Z,29.25
2023-02-12T11:18:25.875Z,29.73
2023-02-12T11:20:22.148Z,29.75
2023-02-12T11:22:08.031Z,29.67
2023-02-12T11:23:42.140Z,29.15
2023-02-12T11:25:17.834Z,29.63
2023-02-12T11:26:50.592Z,30.88
2023-02-12T11:28:23.314Z,31.27
2023-02-12T11:30:23.306Z,29.45
2023-02-12T11:32:03.889Z,30.38
2023-02-12T11:33:38.902Z,29.85
2023-02-12T11:35:15.436Z,30.83
2023-02-12T11:36:49.862Z,30.05
2023-02-12T11:38:29.368Z,30.70
2023-02-12T11:40:02.203Z,31.23
2023-02-12T11:41:39.076Z,31.30
2023-02-12T11:43:19.372Z,28.20
2023-02-12T11:44:55.473Z,29.45
2023-02-12T11:46:29.636Z,29.73
2023-02-12T11:48:02.825Z,30.15
2023-02-12T11:49:41.079Z,31.02
2023-02-12T11:51:20.730Z,31.92
2023-02-12T11:52:57.280Z,29.98
2023-02-12T11:54:32.732Z,29.17
2023-02-12T11:56:07.175Z,31.10
2023-02-12T11:57:46.758Z,30.73
2023-02-12T11:59:33.239Z,26.83
2023-02-12T12:01:13.201Z,27.35
2023-02-12T12:02:53.279Z,27.85
2023-02-12T12:04:31.720Z,29.08
2023-02-12T12:06:15.134Z,32.72
2023-02-12T12:07:54.823Z,30.25
2023-02-12T12:09:34.734Z,41.90
2023-02-12T12:11:12.736Z,31.27
2023-02-12T12:12:52.211Z,32.95
2023-02-12T12:14:28.661Z,29.02
2023-02-12T12:16:27.467Z,28.20
2023-02-12T12:18:18.961Z,28.42
2023-02-12T12:19:58.803Z,28.58
2023-02-12T12:21:38.967Z,29.90
2023-02-12T12:23:17.258Z,28.80
2023-02-12T12:24:54.410Z,29.05
2023-02-12T12:26:30.050Z,29.52
2023-02-12T12:28:13.318Z,28.65
2023-02-12T12:29:53.871Z,29.95
2023-02-12T12:31:32.626Z,28.58
2023-02-12T12:33:14.044Z,27.23
2023-02-12T12:34:46.745Z,26.70
2023-02-12T12:36:36.271Z,27.60
2023-02-12T12:38:19.961Z,29.08
2023-02-12T12:40:08.474Z,27.77
2023-02-12T12:41:51.965Z,29.83
2023-02-12T12:43:35.199Z,28.35
2023-02-12T12:45:25.559Z,26.38
2023-02-12T12:47:11.362Z,25.60
2023-02-12T12:49:02.545Z,26.35
2023-02-12T12:50:52.854Z,25.65
2023-02-12T12:52:52.083Z,27.17
2023-02-12T12:54:39.801Z,16.13
2023-02-12T12:56:25.345Z,23.77
2023-02-12T12:58:06.223Z,25.20
2023-02-12T12:59:53.844Z,24.35
2023-02-12T13:01:45.975Z,24.00
2023-02-12T13:03:58.484Z,25.23
2023-02-12T13:06:03.505Z,22.98
2023-02-12T13:07:49.237Z,24.53
2023-02-12T13:09:43.674Z,23.70
2023-02-12T13:11:32.293Z,21.70
2023-02-12T13:13:19.089Z,21.73
2023-02-12T13:15:01.517Z,23.90
2023-02-12T13:16:40.078Z,18.17
2023-02-12T13:18:23.455Z,23.40
2023-02-12T13:20:05.032Z,18.93
2023-02-12T13:21:46.132Z,19.73
2023-02-12T13:23:27.922Z,21.67
2023-02-12T13:25:08.441Z,21.83
2023-02-12T13:26:49.534Z,23.43
2023-02-12T13:28:30.497Z,21.50
2023-02-12T13:30:11.114Z,21.90
2023-02-12T13:31:50.593Z,14.23
2023-02-12T13:33:26.646Z,11.63
2023-02-12T13:35:00.863Z,11.10
2023-02-12T13:36:36.333Z,12.37
2023-02-12T13:38:14.596Z,12.90
2023-02-12T13:39:50.235Z,14.57
2023-02-12T13:41:23.183Z,14.33
2023-02-12T13:43:01.891Z,12.40
2023-02-12T13:44:43.469Z,13.53
2023-02-12T13:46:25.458Z,15.77
2023-02-12T13:48:20.838Z,15.10
2023-02-12T13:49:59.275Z,16.05
2023-02-12T13:51:42.738Z,13.00
2023-02-12T13:53:23.274Z,17.70
2023-02-12T13:55:05.848Z,14.87
2023-02-12T13:56:43.508Z,17.27
2023-02-12T13:58:41.724Z,14.07
2023-02-12T14:00:47.582Z,14.63
2023-02-12T14:02:50.528Z,15.50
2023-02-12T14:04:30.670Z,19.13
2023-02-12T14:06:15.800Z,15.10
2023-02-12T14:07:51.142Z,14.80
2023-02-12T14:09:32.127Z,20.33
2023-02-12T14:11:08.264Z,20.77
2023-02-12T14:12:43.005Z,20.33
2023-02-12T14:14:26.463Z,19.67
2023-02-12T14:15:59.720Z,20.17
2023-02-12T14:17:56.256Z,22.07
2023-02-12T14:19:58.149Z,22.67
2023-02-12T14:21:39.997Z,21.50
2023-02-12T14:23:28.451Z,22.47
2023-02-12T14:25:02.590Z,20.57
2023-02-12T14:26:39.104Z,21.73
2023-02-12T14:28:24.268Z,21.60
2023-02-12T14:30:28.730Z,23.00
2023-02-12T14:32:01.626Z,21.77
2023-02-12T14:33:35.765Z,21.30
2023-02-12T14:35:34.290Z,22.23
2023-02-12T14:37:37.787Z,22.63
2023-02-12T14:39:29.631Z,22.23
2023-02-12T14:41:34.044Z,22.27
2023-02-12T14:43:32.847Z,22.27
2023-02-12T14:45:05.955Z,22.27
2023-02-12T14:46:49.863Z,22.27
2023-02-12T14:48:52.422Z,22.63
2023-02-12T14:50:40.381Z,23.10
2023-02-12T14:52:18.005Z,23.45
2023-02-12T14:53:53.464Z,23.10
2023-02-12T14:55:29.932Z,23.25
2023-02-12T14:57:07.954Z,22.33
2023-02-12T14:58:40.854Z,23.10
2023-02-12T15:00:24.134Z,23.90
2023-02-12T15:02:01.685Z,21.83
2023-02-12T15:03:43.019Z,23.40
2023-02-12T15:05:23.191Z,22.85
2023-02-12T15:07:00.253Z,23.17
2023-02-12T15:08:40.444Z,24.77
2023-02-12T15:10:18.354Z,23.00
2023-02-12T15:11:56.226Z,24.13
2023-02-12T15:13:34.037Z,24.20
2023-02-12T15:15:13.830Z,24.30
2023-02-12T15:16:53.482Z,25.33
2023-02-12T15:18:30.777Z,26.43
2023-02-12T15:20:08.743Z,26.48
2023-02-12T15:21:43.132Z,27.17
2023-02-12T15:23:40.878Z,25.95
2023-02-12T15:25:18.383Z,29.92
2023-02-12T15:26:53.420Z,23.27
2023-02-12T15:28:33.361Z,25.85
2023-02-12T15:30:25.897Z,26.40
2023-02-12T15:32:02.541Z,27.55
2023-02-12T15:33:38.625Z,27.10
2023-02-12T15:35:23.728Z,26.93
2023-02-12T15:36:59.412Z,30.73
2023-02-12T15:38:35.095Z,29.13
2023-02-12T15:40:14.162Z,29.10
2023-02-12T15:41:47.224Z,27.35
2023-02-12T15:43:19.920Z,29.48
2023-02-12T15:44:52.748Z,36.15
2023-02-12T15:46:26.136Z,26.60
2023-02-12T15:48:05.134Z,28.55
2023-02-12T15:49:39.604Z,33.42
2023-02-12T15:51:24.267Z,33.37
2023-02-12T15:52:58.536Z,31.73
2023-02-12T15:54:31.441Z,30.52
2023-02-12T15:56:04.978Z,38.50
2023-02-12T15:57:37.779Z,30.23
2023-02-12T15:59:20.853Z,27.55
2023-02-12T16:00:54.946Z,29.83
2023-02-12T16:02:30.392Z,29.15
2023-02-12T16:04:06.123Z,32.55
2023-02-12T16:05:38.872Z,24.70
2023-02-12T16:07:13.229Z,29.80
2023-02-12T16:08:50.072Z,26.08
2023-02-12T16:10:23.471Z,28.35
2023-02-12T16:11:57.148Z,26.65
2023-02-12T16:13:33.156Z,28.17
2023-02-12T16:15:06.647Z,24.30
2023-02-12T16:16:44.508Z,25.95
2023-02-12T16:18:25.127Z,23.23
2023-02-12T16:20:00.001Z,23.67
2023-02-12T16:21:35.219Z,25.90
2023-02-12T16:23:09.403Z,23.60
2023-02-12T16:24:48.100Z,25.83
2023-02-12T16:26:24.405Z,24.17
2023-02-12T16:28:02.365Z,23.17
2023-02-12T16:29:40.533Z,21.90
2023-02-12T16:31:15.201Z,19.85
2023-02-12T16:32:48.010Z,19.15
2023-02-12T16:34:34.308Z,20.08
2023-02-12T16:36:12.306Z,19.23
2023-02-12T16:37:48.850Z,20.33
2023-02-12T16:40:11.012Z,19.52
2023-02-12T16:41:55.949Z,19.08
2023-02-12T16:43:28.698Z,19.48
2023-02-12T16:45:01.421Z,21.15
2023-02-12T16:46:44.989Z,20.10
2023-02-12T16:48:23.314Z,19.75
2023-02-12T16:49:58.893Z,18.95
2023-02-12T16:51:33.957Z,19.73
2023-02-12T16:53:09.521Z,19.38
2023-02-12T16:54:42.254Z,20.38
2023-02-12T16:56:18.769Z,19.60
2023-02-12T16:57:51.514Z,19.52
2023-02-12T16:59:24.577Z,18.50
2023-02-12T17:00:59.071Z,17.85
2023-02-12T17:02:33.728Z,19.10
2023-02-12T17:04:09.449Z,18.98
2023-02-12T17:05:43.082Z,20.27
2023-02-12T17:07:24.037Z,19.70
2023-02-12T17:08:57.472Z,18.50
2023-02-12T17:10:30.305Z,17.13
2023-02-12T17:12:04.472Z,16.65
2023-02-12T17:13:37.186Z,18.00
2023-02-12T17:15:18.468Z,16.90
2023-02-12T17:16:51.219Z,18.10
2023-02-12T17:18:24.377Z,29.08
2023-02-12T17:19:57.057Z,28.27
2023-02-12T17:21:32.243Z,31.40
2023-02-12T17:23:05.403Z,26.67
2023-02-12T17:24:38.101Z,24.40
2023-02-12T17:26:12.315Z,25.98
2023-02-12T17:27:46.500Z,26.20
2023-02-12T17:29:19.627Z,22.48
2023-02-12T17:30:52.944Z,21.15
2023-02-12T17:32:25.689Z,24.20
2023-02-12T17:33:58.386Z,19.00
2023-02-12T17:35:31.094Z,18.85
2023-02-12T17:37:04.295Z,21.45
2023-02-12T17:38:37.411Z,18.35
2023-02-12T17:40:12.540Z,19.13
2023-02-12T17:41:45.450Z,17.45
2023-02-12T17:43:19.507Z,17.20
2023-02-12T17:44:53.031Z,17.13
2023-02-12T17:46:28.285Z,18.70
2023-02-12T17:48:00.973Z,16.23
2023-02-12T17:49:35.451Z,17.25
2023-02-12T17:51:08.208Z,16.52
2023-02-12T17:52:41.532Z,16.60
2023-02-12T17:54:15.829Z,17.13
2023-02-12T17:55:48.524Z,16.33
2023-02-12T17:57:21.219Z,16.33
2023-02-12T17:58:55.307Z,17.20
2023-02-12T18:00:29.646Z,17.52
2023-02-12T18:02:02.709Z,17.35
2023-02-12T18:03:35.767Z,17.98
2023-02-12T18:05:09.357Z,18.38
2023-02-12T18:06:42.205Z,19.70
2023-02-12T18:08:14.917Z,19.58
2023-02-12T18:09:47.652Z,19.42
2023-02-12T18:11:20.778Z,18.30
2023-02-12T18:12:53.473Z,18.42
2023-02-12T18:14:27.573Z,18.65
2023-02-12T18:16:00.254Z,18.98
2023-02-12T18:17:33.182Z,18.42
2023-02-12T18:19:06.156Z,19.05
2023-02-12T18:20:40.816Z,20.50
2023-02-12T18:22:13.516Z,19.58
2023-02-12T18:23:46.231Z,20.33
2023-02-12T18:25:19.065Z,19.13
2023-02-12T18:26:52.245Z,19.52
2023-02-12T18:28:24.983Z,19.90
2023-02-12T18:29:59.102Z,18.80
2023-02-12T18:31:32.004Z,20.30
2023-02-12T18:33:04.906Z,19.75
2023-02-12T18:34:37.604Z,20.33
2023-02-12T18:36:12.538Z,19.90
2023-02-12T18:37:47.390Z,21.55
2023-02-12T18:39:20.226Z,19.92
2023-02-12T18:40:52.939Z,18.98
2023-02-12T18:42:26.068Z,20.33
2023-02-12T18:43:59.639Z,19.38
2023-02-12T18:45:33.670Z,19.35
2023-02-12T18:47:06.443Z,19.88
2023-02-12T18:48:39.258Z,18.75
2023-02-12T18:50:12.434Z,19.67
2023-02-12T18:51:45.139Z,19.90
2023-02-12T18:53:18.037Z,19.75
2023-02-12T18:54:51.338Z,18.77
2023-02-12T18:56:24.375Z,19.23
2023-02-12T18:57:57.178Z,20.00
2023-02-12T18:59:29.895Z,19.48
2023-02-12T19:01:13.957Z,19.58
2023-02-12T19:02:46.752Z,18.73
2023-02-12T19:04:21.874Z,19.65
2023-02-12T19:05:54.692Z,19.73
2023-02-12T19:07:27.791Z,18.88
2023-02-12T19:09:03.128Z,18.92
2023-02-12T19:10:38.915Z,18.65
2023-02-12T19:12:11.632Z,18.90
2023-02-12T19:13:44.373Z,18.50
2023-02-12T19:15:18.269Z,19.35
2023-02-12T19:16:53.231Z,19.85
2023-02-12T19:18:26.042Z,18.63
2023-02-12T19:19:58.747Z,19.40
2023-02-12T19:21:31.866Z,18.42
2023-02-12T19:23:04.545Z,19.45
2023-02-12T19:24:46.210Z,21.88
2023-02-12T19:26:19.576Z,20.15
2023-02-12T19:27:52.680Z,20.65
2023-02-12T19:29:25.711Z,19.98
2023-02-12T19:31:00.016Z,20.60
2023-02-12T19:32:34.771Z,20.80
2023-02-12T19:34:14.383Z,20.92
2023-02-12T19:35:50.226Z,21.65
2023-02-12T19:37:22.934Z,20.13
2023-02-12T19:38:55.883Z,21.65
2023-02-12T19:40:28.812Z,21.90
2023-02-12T19:42:01.738Z,19.80
2023-02-12T19:43:34.698Z,21.65
2023-02-12T19:45:08.212Z,21.20
2023-02-12T19:46:42.500Z,21.02
2023-02-12T19:48:16.782Z,20.55
2023-02-12T19:49:49.817Z,21.48
2023-02-12T19:51:24.893Z,21.15
2023-02-12T19:52:57.675Z,20.58
2023-02-12T19:54:30.708Z,20.55
2023-02-12T19:56:03.942Z,21.63
2023-02-12T19:57:38.469Z,21.52
2023-02-12T19:59:13.421Z,21.45
2023-02-12T20:00:46.499Z,20.58
2023-02-12T20:02:19.324Z,20.17
2023-02-12T20:03:54.014Z,20.13
2023-02-12T20:05:26.704Z,20.20
2023-02-12T20:06:59.704Z,21.23
2023-02-12T20:08:33.488Z,20.50
2023-02-12T20:10:07.683Z,21.00
2023-02-12T20:11:40.869Z,18.73
2023-02-12T20:13:14.055Z,19.17
2023-02-12T20:14:46.905Z,19.42
2023-02-12T20:16:21.457Z,19.88
2023-02-12T20:17:54.299Z,18.02
2023-02-12T20:19:30.358Z,19.13
2023-02-12T20:21:09.899Z,18.88
2023-02-12T20:22:42.824Z,18.45
2023-02-12T20:24:15.644Z,18.75
2023-02-12T20:25:48.741Z,19.35
2023-02-12T20:27:21.538Z,18.13
2023-02-12T20:28:54.501Z,17.63
2023-02-12T20:30:27.355Z,18.23
2023-02-12T20:32:00.194Z,17.83
2023-02-12T20:33:33.249Z,18.85
2023-02-12T20:35:07.951Z,17.02
2023-02-12T20:36:42.919Z,17.92
2023-02-12T20:38:15.620Z,17.23
2023-02-12T20:39:48.513Z,17.25
2023-02-12T20:41:21.699Z,18.02
2023-02-12T20:42:54.409Z,17.30
2023-02-12T20:44:27.413Z,17.52
2023-02-12T20:46:05.796Z,16.83
2023-02-12T20:47:38.845Z,16.73